Aberdeen Airport


Codes: FVAB/
Name: Aberdeen Airport
City: Aberdeen
Country: Zimbabwe
Elevation: 4495 ft.

Photos at Aberdeen Airport


   Photos courtesy of SpottingLog. You can add your own sightings and photos by signing up for a free trial today.



No photos found.

Weather at Aberdeen Airport


Time (UTC)DescriptionTempratureWindCloud coverageVisibilityPressureHumidity
18-Apr-2024 00:00Clear Sky15°C4 mph, SE8%10000m1023hPa94%
18-Apr-2024 03:00Clear Sky14°C4 mph, SE4%10000m1023hPa92%
18-Apr-2024 06:00Few Clouds20°C2 mph, E11%10000m1022hPa64%
18-Apr-2024 09:00Scattered Clouds27°C0 mph, E34%10000m1020hPa42%
18-Apr-2024 12:00Light Rain25°C4 mph, SE67%10000m1017hPa50%
18-Apr-2024 15:00Light Rain19°C4 mph, SE99%10000m1019hPa79%
18-Apr-2024 18:00Light Rain17°C4 mph, SE93%10000m1022hPa92%
18-Apr-2024 21:00Overcast Clouds16°C4 mph, SE94%10000m1022hPa96%
19-Apr-2024 00:00Broken Clouds15°C4 mph, SE84%10000m1021hPa97%
19-Apr-2024 03:00Broken Clouds15°C4 mph, SE76%10000m1020hPa96%
19-Apr-2024 06:00Broken Clouds20°C2 mph, SE55%10000m1021hPa75%
19-Apr-2024 09:00Scattered Clouds26°C4 mph, SE25%10000m1018hPa41%
19-Apr-2024 12:00Few Clouds27°C4 mph, SE19%10000m1015hPa39%
19-Apr-2024 15:00Broken Clouds22°C7 mph, SE58%10000m1016hPa58%
19-Apr-2024 18:00Scattered Clouds17°C7 mph, SE44%10000m1019hPa78%
19-Apr-2024 21:00Clear Sky15°C4 mph, SE2%10000m1020hPa91%
20-Apr-2024 00:00Few Clouds15°C4 mph, SE11%10000m1019hPa95%
20-Apr-2024 03:00Few Clouds14°C4 mph, SE13%10000m1018hPa95%
20-Apr-2024 06:00Clear Sky20°C2 mph, SE9%10000m1019hPa66%
20-Apr-2024 09:00Clear Sky26°C4 mph, SE0%10000m1016hPa29%
20-Apr-2024 12:00Clear Sky27°C4 mph, SE0%10000m1014hPa28%
20-Apr-2024 15:00Clear Sky22°C4 mph, SE0%10000m1015hPa50%
20-Apr-2024 18:00Clear Sky16°C4 mph, SE0%10000m1018hPa68%
20-Apr-2024 21:00Clear Sky15°C2 mph, SE0%10000m1018hPa74%
21-Apr-2024 00:00Clear Sky14°C4 mph, SE0%10000m1017hPa77%
21-Apr-2024 03:00Clear Sky13°C2 mph, SE0%10000m1017hPa78%
21-Apr-2024 06:00Clear Sky20°C2 mph, E0%10000m1018hPa54%
21-Apr-2024 09:00Clear Sky26°C4 mph, E0%10000m1016hPa25%
21-Apr-2024 12:00Clear Sky27°C7 mph, SE0%10000m1014hPa22%
21-Apr-2024 15:00Clear Sky21°C4 mph, SE0%10000m1015hPa47%
21-Apr-2024 18:00Clear Sky15°C4 mph, SE0%10000m1018hPa62%
21-Apr-2024 21:00Clear Sky14°C4 mph, SE0%10000m1018hPa57%
22-Apr-2024 00:00Clear Sky13°C4 mph, SE0%10000m1018hPa46%
22-Apr-2024 03:00Clear Sky13°C4 mph, SE0%10000m1018hPa42%
22-Apr-2024 06:00Clear Sky20°C2 mph, SE0%10000m1018hPa30%
22-Apr-2024 09:00Clear Sky27°C4 mph, E0%10000m1016hPa14%
22-Apr-2024 12:00Clear Sky28°C7 mph, E0%10000m1014hPa18%
22-Apr-2024 15:00Clear Sky22°C4 mph, SE0%10000m1015hPa41%
22-Apr-2024 18:00Clear Sky16°C4 mph, SE0%10000m1018hPa46%
22-Apr-2024 21:00Clear Sky15°C4 mph, SE0%10000m1018hPa43%